KEDJ

Details ICAO KEDJ
Name BELLEFONTAINE RGNL
Region United States
Timezone America/New_York (UTC-4.0)
Plans Departing 3
Arriving 4
Stats Elevation 1,123 ft / 342 m (AMSL)
Location 40.372315° -83.819017°
Runways 1
Magnetic Variation 6.610° W
Sunrise 2018-05-22 10:14:39 UTC / 2018-05-22 06:14:39 Local
Sunset 2018-05-23 00:52:07 UTC / 2018-05-22 20:52:07 Local
Advertisement - Login to hide

Runways

ID Width Length Bearing (true) Bearing (mag) Surface Threshold Offset Overrun Length
07 100 ft / 30 m 4,991 ft / 1,521 m 69.24° 75.85° Asphalt 0 ft / 0 m 0 ft / 0 m
25 100 ft / 30 m 4,991 ft / 1,521 m 249.25° 255.86° Asphalt 0 ft / 0 m 0 ft / 0 m

Map

Weather


0- 5 10 15 20 25 30 35+ Temperature / ° C

Clouds and Precipitation
Forecast for 2018-05-22 18:00 UTC. Updated an hour ago

Ground ~20,000 ft ~40,000 ft Winds

METAR

KEDJ 221755Z AUTO 23011KT 10SM FEW027 FEW040 SCT046 23/19 A3002 RMK AO1

TAF

Not found

Frequencies

Recorded 118.07 MHz AWOS 3
Approach 127.65 MHz DAYTON APP/DEP
Unicom 122.80 MHz CTAF/UNICOM
Warning: Do not use this data for real-world aviation or navigation. No guarantee of current accuracy is given.